Time;durP1;ratioP1;P1;durP2;ratioP2;P2;SDS_P1;SDS_P2;PMS_P1;PMS_P2;Temp;Humidity;BMP_temperature;BMP_pressure;BME280_temperature;BME280_humidity;BME280_pressure;Samples;Min_cycle;Max_cycle;Signal;HPM_P1;HPM_P2
2019/12/08 00:01:09;;;;;;;2.17;1.70;;;;;;;20.13;42.13;100659.73;;;;-51
2019/12/08 00:04:10;;;;;;;1.87;1.70;;;;;;;20.12;42.14;100660.20;;;;-52
2019/12/08 00:07:10;;;;;;;1.80;1.70;;;;;;;20.10;42.21;100653.30;;;;-53
2019/12/08 00:10:09;;;;;;;2.31;1.80;;;;;;;20.08;42.17;100645.66;;;;-47
2019/12/08 00:13:09;;;;;;;2.35;1.57;;;;;;;20.07;42.23;100644.72;;;;-52
2019/12/08 00:16:09;;;;;;;1.87;1.68;;;;;;;20.05;42.19;100639.76;;;;-53
2019/12/08 00:19:17;;;;;;;2.17;1.55;;;;;;;20.04;42.22;100636.59;;;;-54
2019/12/08 00:26:10;;;;;;;1.87;1.77;;;;;;;20.00;42.25;100616.50;;;;-54
2019/12/08 00:29:10;;;;;;;2.05;1.83;;;;;;;19.99;42.23;100609.81;;;;-47
2019/12/08 00:32:10;;;;;;;1.77;1.65;;;;;;;19.98;42.29;100598.34;;;;-47
2019/12/08 00:35:10;;;;;;;1.81;1.71;;;;;;;19.96;42.25;100605.63;;;;-47
2019/12/08 00:38:10;;;;;;;1.70;1.60;;;;;;;19.95;42.32;100595.19;;;;-50
2019/12/08 00:41:10;;;;;;;1.90;1.80;;;;;;;19.93;42.32;100602.53;;;;-52
2019/12/08 00:44:10;;;;;;;1.83;1.73;;;;;;;19.91;42.33;100598.73;;;;-47
2019/12/08 00:47:10;;;;;;;1.74;1.60;;;;;;;19.91;42.32;100608.18;;;;-54
2019/12/08 00:50:10;;;;;;;1.86;1.76;;;;;;;19.89;42.33;100607.76;;;;-52
2019/12/08 00:53:09;;;;;;;1.71;1.61;;;;;;;19.88;42.28;100615.36;;;;-47
2019/12/08 00:56:10;;;;;;;2.96;1.73;;;;;;;19.88;42.32;100620.45;;;;-47
2019/12/08 00:59:09;;;;;;;1.67;1.57;;;;;;;19.86;42.26;100613.05;;;;-47
2019/12/08 01:02:10;;;;;;;1.86;1.75;;;;;;;19.85;42.27;100616.12;;;;-53
2019/12/08 01:05:10;;;;;;;2.05;1.65;;;;;;;19.84;42.35;100616.65;;;;-47
2019/12/08 01:08:10;;;;;;;1.95;1.79;;;;;;;19.82;42.31;100611.97;;;;-49
2019/12/08 01:11:10;;;;;;;2.41;1.77;;;;;;;19.81;42.35;100606.99;;;;-54
2019/12/08 01:14:10;;;;;;;1.95;1.61;;;;;;;19.79;42.34;100610.09;;;;-53
2019/12/08 01:17:19;;;;;;;1.83;1.63;;;;;;;19.77;42.31;100607.98;;;;-47
2019/12/08 01:20:25;;;;;;;1.79;1.69;;;;;;;19.77;42.31;100612.24;;;;-47
2019/12/08 01:23:23;;;;;;;2.02;1.81;;;;;;;19.75;42.39;100609.40;;;;-54
2019/12/08 01:26:10;;;;;;;1.96;1.76;;;;;;;19.75;42.29;100603.09;;;;-47
2019/12/08 01:29:10;;;;;;;2.14;1.75;;;;;;;19.73;42.41;100591.11;;;;-52
2019/12/08 01:32:09;;;;;;;1.83;1.61;;;;;;;19.72;42.39;100592.00;;;;-47
2019/12/08 01:35:09;;;;;;;1.87;1.71;;;;;;;19.70;42.43;100589.00;;;;-47
2019/12/08 01:38:09;;;;;;;1.80;1.64;;;;;;;19.69;42.39;100589.63;;;;-54
2019/12/08 01:41:10;;;;;;;2.69;1.80;;;;;;;19.68;42.35;100584.84;;;;-47
2019/12/08 01:44:10;;;;;;;1.78;1.68;;;;;;;19.67;42.41;100585.08;;;;-53
2019/12/08 01:47:10;;;;;;;1.85;1.70;;;;;;;19.67;42.42;100582.23;;;;-53
2019/12/08 01:50:10;;;;;;;1.69;1.59;;;;;;;19.66;42.37;100574.70;;;;-53
2019/12/08 01:53:09;;;;;;;1.89;1.61;;;;;;;19.64;42.45;100576.38;;;;-49
2019/12/08 01:56:09;;;;;;;1.78;1.67;;;;;;;19.63;42.49;100572.66;;;;-46
2019/12/08 01:59:10;;;;;;;2.05;1.60;;;;;;;19.62;42.45;100561.66;;;;-49
2019/12/08 02:02:15;;;;;;;2.01;1.70;;;;;;;19.60;42.51;100562.58;;;;-51
2019/12/08 02:05:10;;;;;;;1.89;1.74;;;;;;;19.60;42.45;100549.23;;;;-49
2019/12/08 02:08:10;;;;;;;1.89;1.70;;;;;;;19.59;42.50;100539.98;;;;-54
2019/12/08 02:11:10;;;;;;;1.71;1.61;;;;;;;19.57;42.48;100521.89;;;;-53
2019/12/08 02:14:10;;;;;;;1.81;1.71;;;;;;;19.57;42.50;100506.81;;;;-52
2019/12/08 02:17:09;;;;;;;1.96;1.60;;;;;;;19.55;42.49;100500.53;;;;-54
2019/12/08 02:20:10;;;;;;;1.70;1.60;;;;;;;19.55;42.52;100494.40;;;;-53
2019/12/08 02:23:09;;;;;;;1.75;1.64;;;;;;;19.53;42.52;100490.95;;;;-49
2019/12/08 02:26:10;;;;;;;1.66;1.56;;;;;;;19.53;42.50;100485.27;;;;-51
2019/12/08 02:29:10;;;;;;;1.65;1.55;;;;;;;19.52;42.50;100478.35;;;;-47
2019/12/08 02:32:10;;;;;;;1.89;1.71;;;;;;;19.51;42.56;100474.95;;;;-51
2019/12/08 02:35:09;;;;;;;1.86;1.69;;;;;;;19.50;42.56;100467.64;;;;-47
2019/12/08 02:38:10;;;;;;;1.99;1.67;;;;;;;19.49;42.58;100452.86;;;;-47
2019/12/08 02:41:10;;;;;;;1.70;1.60;;;;;;;19.47;42.60;100439.20;;;;-53
2019/12/08 02:44:10;;;;;;;1.63;1.53;;;;;;;19.45;42.55;100427.73;;;;-54
2019/12/08 02:47:16;;;;;;;1.70;1.60;;;;;;;19.45;42.58;100422.80;;;;-51
2019/12/08 02:50:19;;;;;;;1.90;1.78;;;;;;;19.44;42.61;100430.53;;;;-54
2019/12/08 02:53:10;;;;;;;1.71;1.61;;;;;;;19.44;42.61;100442.65;;;;-46
2019/12/08 02:56:09;;;;;;;1.70;1.60;;;;;;;19.42;42.59;100443.06;;;;-46
2019/12/08 02:59:09;;;;;;;1.64;1.54;;;;;;;19.41;42.65;100428.42;;;;-51
2019/12/08 03:02:09;;;;;;;1.72;1.62;;;;;;;19.40;42.59;100418.80;;;;-48
2019/12/08 03:05:09;;;;;;;1.70;1.60;;;;;;;19.39;42.59;100419.45;;;;-46
2019/12/08 03:08:10;;;;;;;1.95;1.73;;;;;;;19.40;42.61;100430.58;;;;-46
2019/12/08 03:11:10;;;;;;;1.61;1.51;;;;;;;19.38;42.61;100422.49;;;;-53
2019/12/08 03:14:09;;;;;;;1.62;1.52;;;;;;;19.36;42.67;100420.39;;;;-53
2019/12/08 03:17:10;;;;;;;1.65;1.55;;;;;;;19.36;42.65;100427.42;;;;-49
2019/12/08 03:20:09;;;;;;;1.65;1.55;;;;;;;19.34;42.58;100416.12;;;;-48
2019/12/08 03:23:09;;;;;;;1.68;1.58;;;;;;;19.34;42.64;100406.23;;;;-49
2019/12/08 03:26:10;;;;;;;1.80;1.60;;;;;;;19.33;42.61;100401.57;;;;-53
2019/12/08 03:29:10;;;;;;;1.73;1.63;;;;;;;19.32;42.65;100399.02;;;;-52
2019/12/08 03:32:10;;;;;;;1.63;1.53;;;;;;;19.32;42.66;100396.17;;;;-49
2019/12/08 03:35:10;;;;;;;1.69;1.59;;;;;;;19.31;42.62;100389.09;;;;-53
2019/12/08 03:38:10;;;;;;;2.32;1.63;;;;;;;19.31;42.60;100395.79;;;;-46
2019/12/08 03:41:09;;;;;;;1.60;1.50;;;;;;;19.30;42.68;100385.97;;;;-52
2019/12/08 03:44:09;;;;;;;1.67;1.57;;;;;;;19.28;42.63;100382.20;;;;-51
2019/12/08 03:47:09;;;;;;;1.62;1.52;;;;;;;19.28;42.65;100384.88;;;;-46
2019/12/08 03:50:10;;;;;;;1.67;1.57;;;;;;;19.27;42.67;100392.63;;;;-49
2019/12/08 03:53:09;;;;;;;1.51;1.41;;;;;;;19.25;42.69;100381.84;;;;-53
2019/12/08 03:56:25;;;;;;;1.65;1.55;;;;;;;19.26;42.68;100372.06;;;;-54
2019/12/08 03:59:15;;;;;;;1.60;1.50;;;;;;;19.25;42.66;100363.14;;;;-49
2019/12/08 04:03:12;;;;;;;1.59;1.47;;;;;;;19.24;42.65;100353.22;;;;-46
2019/12/08 04:06:09;;;;;;;1.56;1.46;;;;;;;19.23;42.66;100348.26;;;;-50
2019/12/08 04:09:10;;;;;;;1.44;1.34;;;;;;;19.22;42.67;100345.54;;;;-50
2019/12/08 04:12:10;;;;;;;1.63;1.53;;;;;;;19.22;42.69;100343.52;;;;-48
2019/12/08 04:15:10;;;;;;;1.50;1.40;;;;;;;19.22;42.73;100339.73;;;;-47
2019/12/08 04:18:10;;;;;;;1.51;1.41;;;;;;;19.20;42.71;100339.59;;;;-52
2019/12/08 04:21:09;;;;;;;1.57;1.47;;;;;;;19.20;42.68;100334.91;;;;-52
2019/12/08 04:24:09;;;;;;;1.52;1.42;;;;;;;19.20;42.69;100331.78;;;;-51
2019/12/08 04:27:09;;;;;;;1.59;1.49;;;;;;;19.18;42.69;100330.47;;;;-46
2019/12/08 04:30:09;;;;;;;1.45;1.35;;;;;;;19.17;42.68;100324.95;;;;-46
2019/12/08 04:33:10;;;;;;;1.50;1.40;;;;;;;19.17;42.74;100313.64;;;;-51
2019/12/08 04:36:10;;;;;;;1.50;1.40;;;;;;;19.17;42.67;100309.66;;;;-46
2019/12/08 04:39:09;;;;;;;1.56;1.46;;;;;;;19.16;42.73;100305.03;;;;-48
2019/12/08 04:42:09;;;;;;;1.63;1.50;;;;;;;19.15;42.70;100303.31;;;;-53
2019/12/08 04:45:09;;;;;;;1.42;1.32;;;;;;;19.17;42.74;100301.52;;;;-46
2019/12/08 04:48:09;;;;;;;1.74;1.45;;;;;;;19.18;42.72;100300.73;;;;-51
2019/12/08 04:51:10;;;;;;;1.51;1.41;;;;;;;19.19;42.75;100298.53;;;;-51
2019/12/08 04:54:10;;;;;;;1.57;1.45;;;;;;;19.19;42.72;100293.17;;;;-49
2019/12/08 04:57:10;;;;;;;1.35;1.25;;;;;;;19.22;42.70;100292.13;;;;-53
2019/12/08 05:00:10;;;;;;;1.41;1.31;;;;;;;19.23;42.72;100286.88;;;;-46
2019/12/08 05:03:09;;;;;;;1.59;1.49;;;;;;;19.24;42.78;100277.66;;;;-53
2019/12/08 05:06:09;;;;;;;1.43;1.33;;;;;;;19.27;42.84;100271.31;;;;-51
2019/12/08 05:09:09;;;;;;;1.45;1.35;;;;;;;19.29;42.83;100263.13;;;;-54
2019/12/08 05:12:09;;;;;;;1.41;1.31;;;;;;;19.33;42.79;100257.16;;;;-52
2019/12/08 05:15:10;;;;;;;1.57;1.47;;;;;;;19.36;42.84;100247.25;;;;-53
2019/12/08 05:18:10;;;;;;;1.41;1.31;;;;;;;19.40;42.82;100244.63;;;;-49
2019/12/08 05:21:10;;;;;;;1.50;1.40;;;;;;;19.44;42.80;100245.86;;;;-48
2019/12/08 05:24:09;;;;;;;1.43;1.33;;;;;;;19.49;42.83;100243.16;;;;-51
2019/12/08 05:27:14;;;;;;;1.43;1.33;;;;;;;19.52;42.90;100246.86;;;;-46
2019/12/08 05:30:13;;;;;;;1.40;1.30;;;;;;;19.54;42.83;100242.86;;;;-48
2019/12/08 05:33:09;;;;;;;1.48;1.38;;;;;;;19.57;42.88;100236.18;;;;-53
2019/12/08 05:36:10;;;;;;;1.48;1.38;;;;;;;19.60;42.89;100233.89;;;;-52
2019/12/08 05:39:10;;;;;;;1.43;1.33;;;;;;;19.63;42.92;100231.13;;;;-53
2019/12/08 05:42:10;;;;;;;1.50;1.40;;;;;;;19.65;42.92;100229.57;;;;-48
2019/12/08 05:45:10;;;;;;;1.50;1.40;;;;;;;19.69;42.85;100230.53;;;;-46
2019/12/08 05:48:09;;;;;;;1.51;1.40;;;;;;;19.72;42.90;100229.31;;;;-46
2019/12/08 05:51:09;;;;;;;1.50;1.40;;;;;;;19.76;42.90;100227.63;;;;-46
2019/12/08 05:54:09;;;;;;;1.41;1.31;;;;;;;19.78;42.96;100222.01;;;;-48
2019/12/08 05:57:09;;;;;;;1.49;1.39;;;;;;;19.81;42.96;100226.75;;;;-48
2019/12/08 06:00:10;;;;;;;1.50;1.40;;;;;;;19.84;42.93;100223.59;;;;-48
2019/12/08 06:03:10;;;;;;;1.41;1.31;;;;;;;19.85;42.89;100221.05;;;;-48
2019/12/08 06:06:09;;;;;;;1.48;1.38;;;;;;;19.90;42.88;100221.47;;;;-48
2019/12/08 06:09:09;;;;;;;1.59;1.49;;;;;;;19.91;42.89;100215.81;;;;-48
2019/12/08 06:12:09;;;;;;;1.34;1.24;;;;;;;19.92;42.94;100211.09;;;;-48
2019/12/08 06:15:09;;;;;;;1.29;1.20;;;;;;;19.95;42.85;100216.07;;;;-46
2019/12/08 06:18:09;;;;;;;1.35;1.25;;;;;;;19.97;42.84;100216.28;;;;-46
2019/12/08 06:21:10;;;;;;;1.40;1.30;;;;;;;19.99;42.80;100216.45;;;;-46
2019/12/08 06:24:10;;;;;;;1.49;1.39;;;;;;;20.00;42.87;100217.50;;;;-46
2019/12/08 06:27:09;;;;;;;1.42;1.32;;;;;;;20.02;42.83;100213.49;;;;-49
2019/12/08 06:30:09;;;;;;;1.39;1.29;;;;;;;20.02;42.82;100208.47;;;;-46
2019/12/08 06:33:09;;;;;;;1.40;1.30;;;;;;;20.03;42.77;100205.15;;;;-53
2019/12/08 06:36:09;;;;;;;1.37;1.27;;;;;;;20.05;42.75;100199.36;;;;-52
2019/12/08 06:39:09;;;;;;;1.44;1.34;;;;;;;20.07;42.75;100192.49;;;;-51
2019/12/08 06:42:09;;;;;;;1.39;1.29;;;;;;;20.08;42.74;100180.25;;;;-51
2019/12/08 06:45:09;;;;;;;1.40;1.30;;;;;;;20.10;42.74;100174.97;;;;-51
2019/12/08 06:48:09;;;;;;;1.40;1.30;;;;;;;20.12;42.71;100176.05;;;;-51
2019/12/08 06:51:41;;;;;;;1.39;1.29;;;;;;;20.14;42.69;100168.75;;;;-51
2019/12/08 06:54:09;;;;;;;1.30;1.20;;;;;;;20.15;42.68;100168.28;;;;-51
2019/12/08 06:57:10;;;;;;;1.23;1.20;;;;;;;20.17;42.72;100162.55;;;;-51
2019/12/08 07:00:09;;;;;;;1.36;1.26;;;;;;;20.18;42.68;100157.83;;;;-51
2019/12/08 07:03:10;;;;;;;1.40;1.30;;;;;;;20.20;42.63;100150.29;;;;-51
2019/12/08 07:06:10;;;;;;;1.45;1.35;;;;;;;20.22;42.63;100149.19;;;;-51
2019/12/08 07:09:09;;;;;;;1.41;1.31;;;;;;;20.23;42.62;100138.16;;;;-51
2019/12/08 07:12:09;;;;;;;1.38;1.28;;;;;;;20.25;42.58;100134.91;;;;-51
2019/12/08 07:15:09;;;;;;;1.19;1.14;;;;;;;20.26;42.63;100130.12;;;;-51
2019/12/08 07:18:09;;;;;;;1.23;1.20;;;;;;;20.28;42.60;100126.40;;;;-48
2019/12/08 07:21:09;;;;;;;1.30;1.20;;;;;;;20.29;42.62;100118.92;;;;-51
2019/12/08 07:24:10;;;;;;;1.38;1.28;;;;;;;20.31;42.63;100115.20;;;;-51
2019/12/08 07:27:09;;;;;;;1.31;1.21;;;;;;;20.33;42.57;100122.83;;;;-51
2019/12/08 07:30:09;;;;;;;1.39;1.29;;;;;;;20.33;42.55;100122.48;;;;-48
2019/12/08 07:33:09;;;;;;;1.34;1.25;;;;;;;20.36;42.58;100125.01;;;;-48
2019/12/08 07:36:09;;;;;;;1.31;1.21;;;;;;;20.38;42.53;100126.92;;;;-48
2019/12/08 07:39:09;;;;;;;1.28;1.20;;;;;;;20.39;42.51;100123.61;;;;-48
2019/12/08 07:42:09;;;;;;;1.31;1.21;;;;;;;20.41;42.48;100128.87;;;;-48
2019/12/08 07:45:10;;;;;;;1.30;1.20;;;;;;;20.42;42.51;100112.75;;;;-48
2019/12/08 07:48:09;;;;;;;1.31;1.21;;;;;;;20.44;42.48;100110.70;;;;-48
2019/12/08 07:51:09;;;;;;;1.39;1.29;;;;;;;20.45;42.47;100110.12;;;;-53
2019/12/08 07:54:09;;;;;;;1.17;1.13;;;;;;;20.47;42.50;100105.77;;;;-52
2019/12/08 07:57:09;;;;;;;1.10;1.10;;;;;;;20.48;42.48;100107.92;;;;-53
2019/12/08 08:00:09;;;;;;;1.12;1.12;;;;;;;20.49;42.41;100110.98;;;;-52
2019/12/08 08:03:09;;;;;;;1.30;1.20;;;;;;;20.50;42.48;100120.30;;;;-52
2019/12/08 08:06:10;;;;;;;1.21;1.17;;;;;;;20.51;42.44;100122.28;;;;-52
2019/12/08 08:09:09;;;;;;;1.31;1.21;;;;;;;20.52;42.42;100116.58;;;;-53
2019/12/08 08:12:09;;;;;;;1.29;1.19;;;;;;;20.52;42.35;100121.21;;;;-53
2019/12/08 08:15:09;;;;;;;1.31;1.21;;;;;;;20.54;42.31;100122.36;;;;-48
2019/12/08 08:18:31;;;;;;;1.30;1.20;;;;;;;20.54;42.33;100124.09;;;;-52
2019/12/08 08:21:09;;;;;;;1.30;1.20;;;;;;;20.54;42.33;100127.12;;;;-52
2019/12/08 08:24:09;;;;;;;1.30;1.20;;;;;;;20.54;42.34;100131.58;;;;-51
2019/12/08 08:27:10;;;;;;;1.30;1.20;;;;;;;20.54;42.30;100125.11;;;;-51
2019/12/08 08:30:09;;;;;;;1.23;1.14;;;;;;;20.54;42.28;100120.71;;;;-51
2019/12/08 08:33:09;;;;;;;1.20;1.15;;;;;;;20.55;42.22;100111.05;;;;-51
2019/12/08 08:36:09;;;;;;;1.09;1.09;;;;;;;20.54;42.25;100105.34;;;;-51
2019/12/08 08:39:09;;;;;;;1.11;1.09;;;;;;;20.54;42.22;100117.42;;;;-51
2019/12/08 08:42:09;;;;;;;1.09;1.09;;;;;;;20.55;42.24;100108.03;;;;-51
2019/12/08 08:45:09;;;;;;;1.10;1.10;;;;;;;20.54;42.24;100105.24;;;;-51
2019/12/08 08:48:09;;;;;;;1.30;1.20;;;;;;;20.54;42.21;100101.59;;;;-50
2019/12/08 08:51:09;;;;;;;1.30;1.20;;;;;;;20.54;42.17;100091.86;;;;-51
2019/12/08 08:54:09;;;;;;;1.30;1.20;;;;;;;20.54;42.18;100088.13;;;;-51
2019/12/08 08:57:09;;;;;;;1.12;1.09;;;;;;;20.54;42.17;100084.61;;;;-51
2019/12/08 09:00:10;;;;;;;1.27;1.19;;;;;;;20.54;42.15;100083.33;;;;-51
2019/12/08 09:03:16;;;;;;;1.12;1.09;;;;;;;20.55;42.16;100085.65;;;;-51
2019/12/08 09:06:10;;;;;;;0.96;0.96;;;;;;;20.54;42.14;100078.67;;;;-51
2019/12/08 09:09:10;;;;;;;1.19;1.12;;;;;;;20.54;42.13;100075.62;;;;-51
2019/12/08 09:12:09;;;;;;;1.29;1.19;;;;;;;20.55;42.11;100077.94;;;;-51
2019/12/08 09:15:10;;;;;;;1.14;1.09;;;;;;;20.56;42.09;100071.49;;;;-51
2019/12/08 09:18:09;;;;;;;1.30;1.20;;;;;;;20.55;42.13;100069.72;;;;-51
2019/12/08 09:21:09;;;;;;;1.22;1.12;;;;;;;20.56;42.09;100065.28;;;;-51
2019/12/08 09:24:09;;;;;;;1.10;1.10;;;;;;;20.56;42.11;100073.00;;;;-51
2019/12/08 09:27:12;;;;;;;1.26;1.18;;;;;;;20.56;42.09;100073.10;;;;-51
2019/12/08 09:30:09;;;;;;;1.30;1.20;;;;;;;20.56;42.07;100068.91;;;;-50
2019/12/08 09:33:09;;;;;;;2.33;1.20;;;;;;;20.55;42.12;100069.31;;;;-52
2019/12/08 09:36:09;;;;;;;3.51;1.21;;;;;;;20.59;42.44;100079.34;;;;-49
2019/12/08 09:39:09;;;;;;;4.84;1.32;;;;;;;20.61;42.63;100072.66;;;;-51
2019/12/08 09:42:09;;;;;;;4.40;1.20;;;;;;;20.61;42.89;100064.88;;;;-50
2019/12/08 09:45:09;;;;;;;1.43;1.20;;;;;;;20.64;42.72;100060.79;;;;-51
2019/12/08 09:48:10;;;;;;;3.91;1.33;;;;;;;20.65;42.61;100053.27;;;;-50
2019/12/08 09:51:10;;;;;;;1.41;1.20;;;;;;;20.67;42.67;100056.52;;;;-50
2019/12/08 09:54:09;;;;;;;2.01;1.21;;;;;;;20.73;43.47;100066.69;;;;-46
2019/12/08 09:57:09;;;;;;;2.65;1.19;;;;;;;20.76;44.18;100061.08;;;;-45
2019/12/08 10:00:09;;;;;;;1.32;1.15;;;;;;;20.80;45.01;100055.14;;;;-46
2019/12/08 10:03:09;;;;;;;4.23;1.24;;;;;;;20.82;44.49;100050.14;;;;-50
2019/12/08 10:06:09;;;;;;;2.93;1.20;;;;;;;20.82;42.92;100036.04;;;;-48
2019/12/08 10:09:09;;;;;;;2.27;1.20;;;;;;;20.83;43.70;100031.54;;;;-50
2019/12/08 10:12:09;;;;;;;1.75;1.25;;;;;;;20.84;43.64;100022.88;;;;-48
2019/12/08 10:15:09;;;;;;;3.03;1.24;;;;;;;20.85;43.46;100021.36;;;;-46
2019/12/08 10:18:09;;;;;;;2.19;1.20;;;;;;;20.83;43.35;100012.98;;;;-50
2019/12/08 10:21:09;;;;;;;4.90;1.20;;;;;;;20.84;43.16;100004.78;;;;-50
2019/12/08 10:24:09;;;;;;;2.89;1.43;;;;;;;20.81;42.95;99992.64;;;;-47
2019/12/08 10:27:09;;;;;;;7.15;1.46;;;;;;;20.80;42.29;99985.73;;;;-47
2019/12/08 10:30:09;;;;;;;2.46;1.16;;;;;;;20.83;42.26;99974.88;;;;-48
2019/12/08 10:33:09;;;;;;;1.63;1.25;;;;;;;20.84;42.77;99966.95;;;;-50
2019/12/08 10:36:09;;;;;;;2.84;1.30;;;;;;;20.91;42.83;99965.49;;;;-48
2019/12/08 10:39:09;;;;;;;3.26;1.28;;;;;;;20.93;42.80;99960.11;;;;-53
2019/12/08 10:42:09;;;;;;;3.16;1.23;;;;;;;20.93;42.93;99957.42;;;;-48
2019/12/08 10:45:09;;;;;;;2.81;1.43;;;;;;;20.95;43.11;99951.52;;;;-49
2019/12/08 10:48:09;;;;;;;2.71;1.12;;;;;;;20.98;42.62;99936.66;;;;-49
2019/12/08 10:51:09;;;;;;;2.00;1.27;;;;;;;20.99;42.52;99930.92;;;;-52
2019/12/08 10:54:09;;;;;;;2.61;1.24;;;;;;;21.01;42.80;99928.53;;;;-51
2019/12/08 10:57:09;;;;;;;1.33;1.23;;;;;;;21.03;42.79;99924.39;;;;-51
2019/12/08 11:00:09;;;;;;;1.85;1.14;;;;;;;21.04;42.40;99919.31;;;;-49
2019/12/08 11:03:09;;;;;;;1.08;1.03;;;;;;;21.06;42.61;99922.03;;;;-49
2019/12/08 11:06:09;;;;;;;1.63;1.11;;;;;;;21.09;42.82;99917.25;;;;-48
2019/12/08 11:09:09;;;;;;;1.30;1.20;;;;;;;21.09;42.71;99915.41;;;;-48
2019/12/08 11:12:09;;;;;;;1.77;1.21;;;;;;;21.11;43.09;99924.09;;;;-49
2019/12/08 11:15:09;;;;;;;2.98;1.10;;;;;;;21.11;43.00;99906.56;;;;-48
2019/12/08 11:18:09;;;;;;;2.79;1.45;;;;;;;21.11;42.47;99907.50;;;;-49
2019/12/08 11:21:09;;;;;;;3.58;1.53;;;;;;;21.11;43.13;99887.75;;;;-50
2019/12/08 11:25:05;;;;;;;2.79;1.48;;;;;;;21.12;42.79;99893.32;;;;-51
2019/12/08 11:27:09;;;;;;;3.43;1.42;;;;;;;21.13;42.83;99886.64;;;;-47
2019/12/08 11:30:10;;;;;;;1.60;1.50;;;;;;;21.13;43.04;99879.34;;;;-47
2019/12/08 11:33:16;;;;;;;2.61;1.42;;;;;;;21.13;42.67;99874.38;;;;-48
2019/12/08 11:36:09;;;;;;;1.71;1.37;;;;;;;21.12;42.48;99860.75;;;;-49
2019/12/08 11:39:09;;;;;;;6.06;1.41;;;;;;;21.14;42.63;99857.78;;;;-49
2019/12/08 11:42:09;;;;;;;4.73;1.77;;;;;;;21.12;42.31;99850.41;;;;-48
2019/12/08 11:45:09;;;;;;;4.33;1.70;;;;;;;21.12;42.39;99852.86;;;;-51
2019/12/08 11:48:09;;;;;;;3.00;1.58;;;;;;;21.11;42.29;99845.94;;;;-51
2019/12/08 11:51:09;;;;;;;3.78;1.65;;;;;;;21.09;42.17;99844.98;;;;-52
2019/12/08 11:54:09;;;;;;;5.00;2.03;;;;;;;21.10;42.22;99822.58;;;;-48
2019/12/08 11:57:09;;;;;;;6.93;2.05;;;;;;;21.08;42.27;99809.36;;;;-48
2019/12/08 12:00:09;;;;;;;5.12;1.93;;;;;;;21.10;42.35;99807.20;;;;-55
2019/12/08 12:03:09;;;;;;;7.02;1.81;;;;;;;21.11;42.54;99795.91;;;;-49
2019/12/08 12:06:09;;;;;;;3.82;1.68;;;;;;;21.12;42.58;99780.76;;;;-47
2019/12/08 12:09:09;;;;;;;2.72;1.75;;;;;;;21.14;42.79;99777.69;;;;-52
2019/12/08 12:12:09;;;;;;;3.50;1.90;;;;;;;21.14;42.72;99746.80;;;;-52
2019/12/08 12:15:09;;;;;;;3.24;1.80;;;;;;;21.15;42.74;99732.66;;;;-54
2019/12/08 12:18:09;;;;;;;6.70;2.07;;;;;;;21.17;42.77;99724.04;;;;-66
2019/12/08 12:21:09;;;;;;;3.85;1.90;;;;;;;21.17;42.87;99718.09;;;;-52
2019/12/08 12:24:09;;;;;;;3.51;1.86;;;;;;;21.18;42.98;99728.27;;;;-57
2019/12/08 12:27:09;;;;;;;2.53;1.65;;;;;;;21.20;42.89;99715.12;;;;-54
2019/12/08 12:30:09;;;;;;;2.89;1.65;;;;;;;21.22;43.15;99696.53;;;;-57
2019/12/08 12:33:09;;;;;;;2.49;1.83;;;;;;;21.22;43.11;99693.10;;;;-51
2019/12/08 12:36:09;;;;;;;2.61;1.81;;;;;;;21.23;43.41;99678.25;;;;-58
2019/12/08 12:39:09;;;;;;;4.52;1.84;;;;;;;21.23;43.21;99662.80;;;;-56
2019/12/08 12:42:09;;;;;;;4.13;1.93;;;;;;;21.25;42.65;99660.59;;;;-50
2019/12/08 12:45:09;;;;;;;2.75;1.63;;;;;;;21.24;42.69;99670.72;;;;-48
2019/12/08 12:48:32;;;;;;;4.68;1.81;;;;;;;21.24;42.48;99664.10;;;;-47
2019/12/08 12:51:09;;;;;;;3.42;1.65;;;;;;;21.22;42.26;99657.33;;;;-55
2019/12/08 12:57:09;;;;;;;2.91;1.74;;;;;;;21.21;42.12;99657.71;;;;-54
2019/12/08 13:00:09;;;;;;;2.87;1.63;;;;;;;21.21;42.04;99661.24;;;;-54
2019/12/08 13:03:09;;;;;;;3.83;1.70;;;;;;;21.21;42.07;99653.11;;;;-55
2019/12/08 13:06:09;;;;;;;3.63;1.59;;;;;;;21.19;42.11;99651.28;;;;-55
2019/12/08 13:09:09;;;;;;;2.21;1.65;;;;;;;21.20;42.11;99651.31;;;;-55
2019/12/08 13:12:09;;;;;;;2.43;1.72;;;;;;;21.19;42.08;99657.77;;;;-55
2019/12/08 13:15:09;;;;;;;3.43;1.77;;;;;;;21.19;41.93;99657.67;;;;-54
2019/12/08 13:18:09;;;;;;;2.06;1.76;;;;;;;21.20;41.98;99664.75;;;;-55
2019/12/08 13:21:09;;;;;;;2.83;1.51;;;;;;;21.19;41.86;99649.09;;;;-55
2019/12/08 13:24:09;;;;;;;1.75;1.59;;;;;;;21.18;41.91;99637.42;;;;-55
2019/12/08 13:27:09;;;;;;;3.41;1.55;;;;;;;21.18;41.92;99625.00;;;;-54
2019/12/08 13:30:09;;;;;;;1.55;1.45;;;;;;;21.17;41.89;99608.78;;;;-53
2019/12/08 13:33:10;;;;;;;1.61;1.51;;;;;;;21.17;41.95;99614.49;;;;-53
2019/12/08 13:36:12;;;;;;;4.77;1.62;;;;;;;21.13;42.04;99619.60;;;;-51
2019/12/08 13:39:09;;;;;;;2.27;1.65;;;;;;;21.06;41.29;99632.19;;;;-51
2019/12/08 13:42:09;;;;;;;3.33;1.70;;;;;;;21.02;41.56;99646.19;;;;-52
2019/12/08 13:45:09;;;;;;;2.99;1.63;;;;;;;21.00;41.75;99650.09;;;;-55
2019/12/08 13:48:09;;;;;;;2.69;1.77;;;;;;;21.05;41.82;99646.00;;;;-54
2019/12/08 13:51:09;;;;;;;4.44;1.80;;;;;;;21.07;41.89;99642.86;;;;-55
2019/12/08 13:54:09;;;;;;;2.07;1.69;;;;;;;21.08;41.91;99638.28;;;;-56
2019/12/08 13:57:09;;;;;;;2.64;1.51;;;;;;;21.09;41.89;99640.76;;;;-57
2019/12/08 14:00:09;;;;;;;3.33;1.83;;;;;;;21.10;41.91;99638.41;;;;-57
2019/12/08 14:03:09;;;;;;;4.86;1.70;;;;;;;21.10;41.93;99636.92;;;;-57
2019/12/08 14:06:09;;;;;;;3.18;1.54;;;;;;;21.12;41.89;99631.41;;;;-57
2019/12/08 14:09:09;;;;;;;2.45;1.58;;;;;;;21.12;41.93;99627.54;;;;-57
2019/12/08 14:12:09;;;;;;;2.91;1.59;;;;;;;21.14;41.96;99626.48;;;;-57
2019/12/08 14:15:09;;;;;;;2.38;1.57;;;;;;;21.13;41.94;99619.00;;;;-56
2019/12/08 14:18:09;;;;;;;2.03;1.44;;;;;;;21.14;41.97;99619.20;;;;-57
2019/12/08 14:21:09;;;;;;;2.52;1.57;;;;;;;21.13;41.92;99616.55;;;;-57
2019/12/08 14:24:09;;;;;;;2.28;1.63;;;;;;;21.13;41.95;99613.96;;;;-56
2019/12/08 14:27:09;;;;;;;2.80;1.60;;;;;;;21.14;41.95;99611.70;;;;-56
2019/12/08 14:30:09;;;;;;;3.11;1.60;;;;;;;21.14;41.97;99608.18;;;;-57
2019/12/08 14:33:09;;;;;;;1.74;1.57;;;;;;;21.14;41.96;99611.64;;;;-56
2019/12/08 14:36:09;;;;;;;4.22;1.69;;;;;;;21.13;41.98;99605.50;;;;-57
2019/12/08 14:39:09;;;;;;;1.87;1.51;;;;;;;21.13;42.00;99595.50;;;;-56
2019/12/08 14:42:09;;;;;;;4.55;1.67;;;;;;;21.17;42.28;99593.41;;;;-52
2019/12/08 14:45:09;;;;;;;2.82;1.61;;;;;;;21.19;42.63;99592.02;;;;-53
2019/12/08 14:48:09;;;;;;;2.20;1.55;;;;;;;21.21;42.64;99588.47;;;;-53
2019/12/08 14:51:09;;;;;;;1.63;1.51;;;;;;;21.23;42.86;99588.34;;;;-53
2019/12/08 14:54:09;;;;;;;1.97;1.40;;;;;;;21.27;42.79;99574.39;;;;-55
2019/12/08 14:57:09;;;;;;;4.18;1.60;;;;;;;21.25;42.46;99571.09;;;;-55
2019/12/08 15:00:09;;;;;;;4.25;1.49;;;;;;;21.27;42.46;99575.14;;;;-57
2019/12/08 15:03:09;;;;;;;1.89;1.40;;;;;;;21.28;42.21;99570.39;;;;-58
2019/12/08 15:06:09;;;;;;;1.67;1.46;;;;;;;21.29;42.72;99574.18;;;;-57
2019/12/08 15:09:09;;;;;;;2.06;1.40;;;;;;;21.30;42.69;99570.67;;;;-53
2019/12/08 15:12:09;;;;;;;1.58;1.40;;;;;;;21.29;42.32;99569.67;;;;-53
2019/12/08 15:15:09;;;;;;;2.67;1.57;;;;;;;21.28;41.91;99551.08;;;;-53
2019/12/08 15:18:09;;;;;;;5.13;1.61;;;;;;;21.26;41.91;99554.56;;;;-53
2019/12/08 15:21:09;;;;;;;1.73;1.40;;;;;;;21.26;41.99;99553.39;;;;-52
2019/12/08 15:24:09;;;;;;;3.86;1.49;;;;;;;21.25;42.09;99540.77;;;;-53
2019/12/08 15:27:09;;;;;;;2.56;1.29;;;;;;;21.25;42.15;99539.09;;;;-54
2019/12/08 15:30:09;;;;;;;2.94;1.54;;;;;;;21.25;42.16;99534.72;;;;-53
2019/12/08 15:33:09;;;;;;;4.10;1.57;;;;;;;21.24;42.75;99527.48;;;;-52
2019/12/08 15:36:09;;;;;;;2.22;1.40;;;;;;;21.29;43.23;99524.80;;;;-57
2019/12/08 15:39:09;;;;;;;2.40;1.40;;;;;;;21.31;44.04;99520.58;;;;-57
2019/12/08 15:42:09;;;;;;;3.10;1.21;;;;;;;21.37;44.37;99520.78;;;;-53
2019/12/08 15:45:09;;;;;;;3.78;1.35;;;;;;;21.37;44.25;99518.19;;;;-52
2019/12/08 15:48:09;;;;;;;1.50;1.35;;;;;;;21.40;44.37;99517.22;;;;-52
2019/12/08 15:51:19;;;;;;;2.02;1.46;;;;;;;21.42;44.97;99520.05;;;;-51
2019/12/08 15:54:09;;;;;;;6.80;1.59;;;;;;;21.48;46.18;99517.90;;;;-58
2019/12/08 15:57:09;;;;;;;4.73;1.48;;;;;;;21.49;45.62;99517.34;;;;-52
2019/12/08 16:00:09;;;;;;;3.07;1.36;;;;;;;21.50;44.73;99524.08;;;;-55
2019/12/08 16:03:09;;;;;;;4.29;1.51;;;;;;;21.49;44.47;99526.00;;;;-51
2019/12/08 16:06:09;;;;;;;3.79;1.60;;;;;;;21.50;44.85;99522.58;;;;-52
2019/12/08 16:09:09;;;;;;;3.51;1.47;;;;;;;21.50;44.16;99529.89;;;;-51
2019/12/08 16:12:09;;;;;;;4.39;1.29;;;;;;;21.49;43.76;99523.39;;;;-52
2019/12/08 16:15:09;;;;;;;5.51;1.54;;;;;;;21.52;44.36;99524.19;;;;-52
2019/12/08 16:18:09;;;;;;;2.49;1.40;;;;;;;21.53;44.38;99521.30;;;;-52
2019/12/08 16:21:09;;;;;;;1.32;1.22;;;;;;;21.54;44.70;99520.87;;;;-52
2019/12/08 16:24:09;;;;;;;2.08;1.30;;;;;;;21.54;43.86;99522.58;;;;-53
2019/12/08 16:27:09;;;;;;;2.47;1.41;;;;;;;21.56;44.40;99521.25;;;;-51
2019/12/08 16:30:09;;;;;;;5.65;1.47;;;;;;;21.58;44.28;99513.23;;;;-52
2019/12/08 16:33:09;;;;;;;1.85;1.29;;;;;;;21.60;44.29;99513.31;;;;-54
2019/12/08 16:36:09;;;;;;;2.84;1.31;;;;;;;21.58;43.75;99515.69;;;;-59
2019/12/08 16:39:09;;;;;;;1.73;1.35;;;;;;;21.61;44.19;99505.33;;;;-58
2019/12/08 16:42:09;;;;;;;4.59;1.40;;;;;;;21.61;43.48;99505.50;;;;-54
2019/12/08 16:45:09;;;;;;;4.79;1.36;;;;;;;21.59;43.56;99501.38;;;;-53
2019/12/08 16:48:09;;;;;;;3.38;1.40;;;;;;;21.60;43.58;99495.66;;;;-54
2019/12/08 16:51:09;;;;;;;2.97;1.30;;;;;;;21.60;43.29;99495.40;;;;-54
2019/12/08 16:54:09;;;;;;;2.89;1.31;;;;;;;21.61;43.23;99492.19;;;;-54